sensor_id;sensor_type;location;lat;lon;timestamp;P1;durP1;ratioP1;P2;durP2;ratioP2
52268;SDS011;38224;50.950;4.100;2023-07-16T00:00:17;12.68;;;2.70;;
52268;SDS011;38224;50.950;4.100;2023-07-16T00:02:44;9.93;;;2.85;;
52268;SDS011;38224;50.950;4.100;2023-07-16T00:05:09;6.80;;;2.17;;
52268;SDS011;38224;50.950;4.100;2023-07-16T00:07:34;4.28;;;1.92;;
52268;SDS011;38224;50.950;4.100;2023-07-16T00:10:00;9.23;;;2.80;;
52268;SDS011;38224;50.950;4.100;2023-07-16T00:12:25;9.60;;;2.23;;
52268;SDS011;38224;50.950;4.100;2023-07-16T00:14:50;10.00;;;2.77;;
52268;SDS011;38224;50.950;4.100;2023-07-16T00:17:15;9.23;;;2.30;;
52268;SDS011;38224;50.950;4.100;2023-07-16T00:19:41;10.43;;;2.17;;
52268;SDS011;38224;50.950;4.100;2023-07-16T00:22:07;8.90;;;2.17;;
52268;SDS011;38224;50.950;4.100;2023-07-16T00:24:32;12.93;;;2.60;;
52268;SDS011;38224;50.950;4.100;2023-07-16T00:26:57;9.17;;;3.00;;
52268;SDS011;38224;50.950;4.100;2023-07-16T00:29:23;9.75;;;2.47;;
52268;SDS011;38224;50.950;4.100;2023-07-16T00:31:48;9.10;;;2.80;;
52268;SDS011;38224;50.950;4.100;2023-07-16T00:34:13;8.93;;;2.42;;
52268;SDS011;38224;50.950;4.100;2023-07-16T00:36:39;10.63;;;2.58;;
52268;SDS011;38224;50.950;4.100;2023-07-16T00:39:04;11.27;;;2.40;;
52268;SDS011;38224;50.950;4.100;2023-07-16T00:41:29;11.27;;;2.90;;
52268;SDS011;38224;50.950;4.100;2023-07-16T00:43:54;10.53;;;2.70;;
52268;SDS011;38224;50.950;4.100;2023-07-16T00:46:20;7.47;;;2.30;;
52268;SDS011;38224;50.950;4.100;2023-07-16T00:48:45;11.02;;;2.78;;
52268;SDS011;38224;50.950;4.100;2023-07-16T00:51:11;7.60;;;2.40;;
52268;SDS011;38224;50.950;4.100;2023-07-16T00:53:36;9.60;;;2.33;;
52268;SDS011;38224;50.950;4.100;2023-07-16T00:56:02;9.65;;;2.42;;
52268;SDS011;38224;50.950;4.100;2023-07-16T00:58:27;8.27;;;2.53;;
52268;SDS011;38224;50.950;4.100;2023-07-16T01:00:52;10.10;;;2.92;;
52268;SDS011;38224;50.950;4.100;2023-07-16T01:03:17;13.93;;;3.10;;
52268;SDS011;38224;50.950;4.100;2023-07-16T01:08:11;10.13;;;2.63;;
52268;SDS011;38224;50.950;4.100;2023-07-16T01:10:38;10.60;;;2.38;;
52268;SDS011;38224;50.950;4.100;2023-07-16T01:13:04;13.45;;;2.90;;
52268;SDS011;38224;50.950;4.100;2023-07-16T01:15:29;10.30;;;3.60;;
52268;SDS011;38224;50.950;4.100;2023-07-16T01:17:55;9.68;;;2.80;;
52268;SDS011;38224;50.950;4.100;2023-07-16T01:20:20;9.40;;;3.13;;
52268;SDS011;38224;50.950;4.100;2023-07-16T01:22:52;7.00;;;2.78;;
52268;SDS011;38224;50.950;4.100;2023-07-16T01:25:32;15.43;;;3.17;;
52268;SDS011;38224;50.950;4.100;2023-07-16T01:30:29;6.38;;;2.38;;
52268;SDS011;38224;50.950;4.100;2023-07-16T01:32:55;10.07;;;2.78;;
52268;SDS011;38224;50.950;4.100;2023-07-16T01:35:21;11.93;;;3.13;;
52268;SDS011;38224;50.950;4.100;2023-07-16T01:37:46;9.32;;;2.63;;
52268;SDS011;38224;50.950;4.100;2023-07-16T01:40:12;8.13;;;2.87;;
52268;SDS011;38224;50.950;4.100;2023-07-16T01:42:37;10.65;;;2.70;;
52268;SDS011;38224;50.950;4.100;2023-07-16T01:45:03;11.45;;;2.58;;
52268;SDS011;38224;50.950;4.100;2023-07-16T01:49:54;9.57;;;3.70;;
52268;SDS011;38224;50.950;4.100;2023-07-16T01:52:19;9.30;;;3.95;;
52268;SDS011;38224;50.950;4.100;2023-07-16T01:54:44;11.75;;;3.67;;
52268;SDS011;38224;50.950;4.100;2023-07-16T01:57:10;13.18;;;4.35;;
52268;SDS011;38224;50.950;4.100;2023-07-16T01:59:35;16.03;;;4.13;;
52268;SDS011;38224;50.950;4.100;2023-07-16T02:02:00;9.52;;;3.97;;
52268;SDS011;38224;50.950;4.100;2023-07-16T02:04:25;13.27;;;3.90;;
52268;SDS011;38224;50.950;4.100;2023-07-16T02:06:50;12.40;;;4.10;;
52268;SDS011;38224;50.950;4.100;2023-07-16T02:09:16;13.07;;;3.23;;
52268;SDS011;38224;50.950;4.100;2023-07-16T02:11:41;12.35;;;3.60;;
52268;SDS011;38224;50.950;4.100;2023-07-16T02:14:06;12.73;;;3.53;;
52268;SDS011;38224;50.950;4.100;2023-07-16T02:16:32;6.37;;;3.83;;
52268;SDS011;38224;50.950;4.100;2023-07-16T02:18:57;8.97;;;3.47;;
52268;SDS011;38224;50.950;4.100;2023-07-16T02:21:22;13.85;;;3.70;;
52268;SDS011;38224;50.950;4.100;2023-07-16T02:23:47;10.00;;;3.60;;
52268;SDS011;38224;50.950;4.100;2023-07-16T02:26:13;11.37;;;3.80;;
52268;SDS011;38224;50.950;4.100;2023-07-16T02:28:38;18.60;;;3.80;;
52268;SDS011;38224;50.950;4.100;2023-07-16T02:31:03;9.90;;;3.80;;
52268;SDS011;38224;50.950;4.100;2023-07-16T02:33:28;8.68;;;3.85;;
52268;SDS011;38224;50.950;4.100;2023-07-16T02:35:54;14.10;;;3.90;;
52268;SDS011;38224;50.950;4.100;2023-07-16T02:38:19;8.33;;;3.40;;
52268;SDS011;38224;50.950;4.100;2023-07-16T02:40:45;14.30;;;4.00;;
52268;SDS011;38224;50.950;4.100;2023-07-16T02:43:10;9.10;;;3.72;;
52268;SDS011;38224;50.950;4.100;2023-07-16T02:45:36;12.45;;;3.90;;
52268;SDS011;38224;50.950;4.100;2023-07-16T02:48:01;9.37;;;3.60;;
52268;SDS011;38224;50.950;4.100;2023-07-16T02:50:26;9.13;;;3.75;;
52268;SDS011;38224;50.950;4.100;2023-07-16T02:52:52;12.03;;;4.07;;
52268;SDS011;38224;50.950;4.100;2023-07-16T02:55:17;9.83;;;4.60;;
52268;SDS011;38224;50.950;4.100;2023-07-16T02:57:42;12.30;;;4.83;;
52268;SDS011;38224;50.950;4.100;2023-07-16T03:00:08;14.33;;;4.70;;
52268;SDS011;38224;50.950;4.100;2023-07-16T03:02:33;12.23;;;4.90;;
52268;SDS011;38224;50.950;4.100;2023-07-16T03:04:58;11.10;;;4.70;;
52268;SDS011;38224;50.950;4.100;2023-07-16T03:07:24;12.13;;;4.40;;
52268;SDS011;38224;50.950;4.100;2023-07-16T03:09:49;12.10;;;5.20;;
52268;SDS011;38224;50.950;4.100;2023-07-16T03:12:14;9.85;;;4.70;;
52268;SDS011;38224;50.950;4.100;2023-07-16T03:14:39;10.87;;;4.47;;
52268;SDS011;38224;50.950;4.100;2023-07-16T03:17:05;10.65;;;5.22;;
52268;SDS011;38224;50.950;4.100;2023-07-16T03:19:31;15.52;;;5.28;;
52268;SDS011;38224;50.950;4.100;2023-07-16T03:21:57;12.65;;;4.95;;
52268;SDS011;38224;50.950;4.100;2023-07-16T03:24:22;15.50;;;5.30;;
52268;SDS011;38224;50.950;4.100;2023-07-16T03:26:47;13.30;;;5.00;;
52268;SDS011;38224;50.950;4.100;2023-07-16T03:29:12;14.80;;;5.27;;
52268;SDS011;38224;50.950;4.100;2023-07-16T03:31:38;13.47;;;5.23;;
52268;SDS011;38224;50.950;4.100;2023-07-16T03:34:03;12.47;;;5.20;;
52268;SDS011;38224;50.950;4.100;2023-07-16T03:36:28;10.38;;;4.60;;
52268;SDS011;38224;50.950;4.100;2023-07-16T03:38:53;14.00;;;5.07;;
52268;SDS011;38224;50.950;4.100;2023-07-16T03:41:19;11.93;;;5.30;;
52268;SDS011;38224;50.950;4.100;2023-07-16T03:43:44;12.85;;;4.93;;
52268;SDS011;38224;50.950;4.100;2023-07-16T03:46:09;11.40;;;5.87;;
52268;SDS011;38224;50.950;4.100;2023-07-16T03:48:35;12.75;;;5.85;;
52268;SDS011;38224;50.950;4.100;2023-07-16T03:51:00;12.07;;;5.22;;
52268;SDS011;38224;50.950;4.100;2023-07-16T03:53:25;18.10;;;5.53;;
52268;SDS011;38224;50.950;4.100;2023-07-16T03:55:51;13.80;;;5.68;;
52268;SDS011;38224;50.950;4.100;2023-07-16T03:58:16;10.30;;;5.40;;
52268;SDS011;38224;50.950;4.100;2023-07-16T04:00:41;13.73;;;5.75;;
52268;SDS011;38224;50.950;4.100;2023-07-16T04:03:07;15.75;;;5.60;;
52268;SDS011;38224;50.950;4.100;2023-07-16T04:05:33;10.75;;;5.25;;
52268;SDS011;38224;50.950;4.100;2023-07-16T04:07:58;16.03;;;5.77;;
52268;SDS011;38224;50.950;4.100;2023-07-16T04:10:23;15.95;;;5.78;;
52268;SDS011;38224;50.950;4.100;2023-07-16T04:12:49;15.75;;;6.32;;
52268;SDS011;38224;50.950;4.100;2023-07-16T04:15:14;12.40;;;5.75;;
52268;SDS011;38224;50.950;4.100;2023-07-16T04:17:39;19.60;;;6.68;;
52268;SDS011;38224;50.950;4.100;2023-07-16T04:20:05;17.57;;;5.37;;
52268;SDS011;38224;50.950;4.100;2023-07-16T04:22:31;12.40;;;6.78;;
52268;SDS011;38224;50.950;4.100;2023-07-16T04:24:56;13.23;;;6.20;;
52268;SDS011;38224;50.950;4.100;2023-07-16T04:27:22;16.07;;;6.03;;
52268;SDS011;38224;50.950;4.100;2023-07-16T04:29:47;13.35;;;6.63;;
52268;SDS011;38224;50.950;4.100;2023-07-16T04:32:12;18.13;;;6.60;;
52268;SDS011;38224;50.950;4.100;2023-07-16T04:34:37;11.80;;;5.87;;
52268;SDS011;38224;50.950;4.100;2023-07-16T04:37:02;19.63;;;6.27;;
52268;SDS011;38224;50.950;4.100;2023-07-16T04:39:28;14.43;;;5.50;;
52268;SDS011;38224;50.950;4.100;2023-07-16T04:41:53;14.95;;;5.63;;
52268;SDS011;38224;50.950;4.100;2023-07-16T04:44:18;16.45;;;5.78;;
52268;SDS011;38224;50.950;4.100;2023-07-16T04:46:44;14.97;;;5.37;;
52268;SDS011;38224;50.950;4.100;2023-07-16T04:49:09;16.48;;;6.15;;
52268;SDS011;38224;50.950;4.100;2023-07-16T04:51:34;11.63;;;6.00;;
52268;SDS011;38224;50.950;4.100;2023-07-16T04:54:00;16.30;;;6.05;;
52268;SDS011;38224;50.950;4.100;2023-07-16T04:56:25;15.40;;;5.72;;
52268;SDS011;38224;50.950;4.100;2023-07-16T04:58:50;15.23;;;6.10;;
52268;SDS011;38224;50.950;4.100;2023-07-16T05:01:16;18.17;;;6.65;;
52268;SDS011;38224;50.950;4.100;2023-07-16T05:03:41;13.47;;;6.17;;
52268;SDS011;38224;50.950;4.100;2023-07-16T05:06:06;12.77;;;6.25;;
52268;SDS011;38224;50.950;4.100;2023-07-16T05:08:32;11.60;;;5.50;;
52268;SDS011;38224;50.950;4.100;2023-07-16T05:10:57;14.17;;;6.07;;
52268;SDS011;38224;50.950;4.100;2023-07-16T05:13:24;11.98;;;5.72;;
52268;SDS011;38224;50.950;4.100;2023-07-16T05:15:49;16.87;;;6.10;;
52268;SDS011;38224;50.950;4.100;2023-07-16T05:18:15;10.63;;;5.40;;
52268;SDS011;38224;50.950;4.100;2023-07-16T05:20:40;19.90;;;6.43;;
52268;SDS011;38224;50.950;4.100;2023-07-16T05:23:06;15.27;;;6.10;;
52268;SDS011;38224;50.950;4.100;2023-07-16T05:25:31;20.43;;;6.87;;
52268;SDS011;38224;50.950;4.100;2023-07-16T05:27:56;19.20;;;6.67;;
52268;SDS011;38224;50.950;4.100;2023-07-16T05:30:21;17.27;;;6.25;;
52268;SDS011;38224;50.950;4.100;2023-07-16T05:32:47;12.65;;;6.40;;
52268;SDS011;38224;50.950;4.100;2023-07-16T05:35:12;16.00;;;6.40;;
52268;SDS011;38224;50.950;4.100;2023-07-16T05:37:37;16.38;;;5.68;;
52268;SDS011;38224;50.950;4.100;2023-07-16T05:40:03;15.88;;;6.13;;
52268;SDS011;38224;50.950;4.100;2023-07-16T05:42:28;11.55;;;5.60;;
52268;SDS011;38224;50.950;4.100;2023-07-16T05:44:54;14.30;;;6.20;;
52268;SDS011;38224;50.950;4.100;2023-07-16T05:47:19;12.98;;;5.75;;
52268;SDS011;38224;50.950;4.100;2023-07-16T05:49:44;11.43;;;5.87;;
52268;SDS011;38224;50.950;4.100;2023-07-16T05:52:10;10.80;;;5.63;;
52268;SDS011;38224;50.950;4.100;2023-07-16T05:54:35;13.33;;;5.77;;
52268;SDS011;38224;50.950;4.100;2023-07-16T05:57:00;14.10;;;6.25;;
52268;SDS011;38224;50.950;4.100;2023-07-16T05:59:25;11.18;;;5.75;;
52268;SDS011;38224;50.950;4.100;2023-07-16T06:01:51;12.02;;;6.07;;
52268;SDS011;38224;50.950;4.100;2023-07-16T06:04:16;16.23;;;5.87;;
52268;SDS011;38224;50.950;4.100;2023-07-16T06:06:41;16.70;;;6.20;;
52268;SDS011;38224;50.950;4.100;2023-07-16T06:09:06;13.77;;;5.73;;
52268;SDS011;38224;50.950;4.100;2023-07-16T06:11:32;12.27;;;5.57;;
52268;SDS011;38224;50.950;4.100;2023-07-16T06:13:57;13.47;;;6.07;;
52268;SDS011;38224;50.950;4.100;2023-07-16T06:16:22;12.13;;;6.38;;
52268;SDS011;38224;50.950;4.100;2023-07-16T06:18:48;14.10;;;6.13;;
52268;SDS011;38224;50.950;4.100;2023-07-16T06:21:13;16.37;;;6.60;;
52268;SDS011;38224;50.950;4.100;2023-07-16T06:23:38;11.03;;;6.10;;
52268;SDS011;38224;50.950;4.100;2023-07-16T06:26:04;15.77;;;5.90;;
52268;SDS011;38224;50.950;4.100;2023-07-16T06:28:29;11.07;;;5.20;;
52268;SDS011;38224;50.950;4.100;2023-07-16T06:30:54;14.10;;;6.20;;
52268;SDS011;38224;50.950;4.100;2023-07-16T06:33:19;15.27;;;6.10;;
52268;SDS011;38224;50.950;4.100;2023-07-16T06:35:45;10.70;;;5.18;;
52268;SDS011;38224;50.950;4.100;2023-07-16T06:38:11;9.27;;;5.75;;
52268;SDS011;38224;50.950;4.100;2023-07-16T06:40:36;15.30;;;5.68;;
52268;SDS011;38224;50.950;4.100;2023-07-16T06:43:02;18.53;;;6.43;;
52268;SDS011;38224;50.950;4.100;2023-07-16T06:45:27;11.50;;;5.67;;
52268;SDS011;38224;50.950;4.100;2023-07-16T06:47:52;11.37;;;5.60;;
52268;SDS011;38224;50.950;4.100;2023-07-16T06:50:17;12.67;;;5.93;;
52268;SDS011;38224;50.950;4.100;2023-07-16T06:52:43;10.27;;;5.73;;
52268;SDS011;38224;50.950;4.100;2023-07-16T06:55:08;14.27;;;6.13;;
52268;SDS011;38224;50.950;4.100;2023-07-16T06:57:33;10.77;;;5.50;;
52268;SDS011;38224;50.950;4.100;2023-07-16T06:59:59;9.77;;;4.80;;
52268;SDS011;38224;50.950;4.100;2023-07-16T07:02:24;14.40;;;5.30;;
52268;SDS011;38224;50.950;4.100;2023-07-16T07:04:50;17.77;;;6.17;;
52268;SDS011;38224;50.950;4.100;2023-07-16T07:07:15;12.50;;;5.70;;
52268;SDS011;38224;50.950;4.100;2023-07-16T07:09:40;14.00;;;5.60;;
52268;SDS011;38224;50.950;4.100;2023-07-16T07:12:06;12.03;;;6.20;;
52268;SDS011;38224;50.950;4.100;2023-07-16T07:14:32;12.35;;;5.35;;
52268;SDS011;38224;50.950;4.100;2023-07-16T07:16:57;13.90;;;5.60;;
52268;SDS011;38224;50.950;4.100;2023-07-16T07:19:23;15.73;;;5.87;;
52268;SDS011;38224;50.950;4.100;2023-07-16T07:21:48;15.93;;;5.57;;
52268;SDS011;38224;50.950;4.100;2023-07-16T07:24:13;10.93;;;5.53;;
52268;SDS011;38224;50.950;4.100;2023-07-16T07:26:38;11.37;;;5.13;;
52268;SDS011;38224;50.950;4.100;2023-07-16T07:29:04;12.20;;;5.80;;
52268;SDS011;38224;50.950;4.100;2023-07-16T07:31:29;14.27;;;5.33;;
52268;SDS011;38224;50.950;4.100;2023-07-16T07:33:54;14.27;;;5.72;;
52268;SDS011;38224;50.950;4.100;2023-07-16T07:36:22;12.77;;;5.97;;
52268;SDS011;38224;50.950;4.100;2023-07-16T07:38:47;21.30;;;7.47;;
52268;SDS011;38224;50.950;4.100;2023-07-16T07:41:12;12.43;;;5.57;;
52268;SDS011;38224;50.950;4.100;2023-07-16T07:43:38;14.48;;;5.88;;
52268;SDS011;38224;50.950;4.100;2023-07-16T07:46:03;14.77;;;5.97;;
52268;SDS011;38224;50.950;4.100;2023-07-16T07:48:28;12.52;;;5.63;;
52268;SDS011;38224;50.950;4.100;2023-07-16T07:50:53;16.80;;;5.80;;
52268;SDS011;38224;50.950;4.100;2023-07-16T07:53:19;12.30;;;5.50;;
52268;SDS011;38224;50.950;4.100;2023-07-16T07:55:44;10.77;;;5.20;;
52268;SDS011;38224;50.950;4.100;2023-07-16T07:58:10;12.48;;;5.15;;
52268;SDS011;38224;50.950;4.100;2023-07-16T08:00:36;11.98;;;4.88;;
52268;SDS011;38224;50.950;4.100;2023-07-16T08:03:01;15.40;;;5.37;;
52268;SDS011;38224;50.950;4.100;2023-07-16T08:05:26;10.77;;;4.60;;
52268;SDS011;38224;50.950;4.100;2023-07-16T08:07:52;10.38;;;4.93;;
52268;SDS011;38224;50.950;4.100;2023-07-16T08:10:18;11.90;;;5.18;;
52268;SDS011;38224;50.950;4.100;2023-07-16T08:12:43;9.20;;;4.55;;
52268;SDS011;38224;50.950;4.100;2023-07-16T08:15:09;11.32;;;4.70;;
52268;SDS011;38224;50.950;4.100;2023-07-16T08:17:39;7.50;;;4.38;;
52268;SDS011;38224;50.950;4.100;2023-07-16T08:20:04;8.48;;;4.30;;
52268;SDS011;38224;50.950;4.100;2023-07-16T08:22:30;14.52;;;4.68;;
52268;SDS011;38224;50.950;4.100;2023-07-16T08:24:55;10.77;;;4.57;;
52268;SDS011;38224;50.950;4.100;2023-07-16T08:27:20;8.73;;;4.37;;
52268;SDS011;38224;50.950;4.100;2023-07-16T08:29:45;8.45;;;4.50;;
52268;SDS011;38224;50.950;4.100;2023-07-16T08:32:11;7.50;;;4.30;;
52268;SDS011;38224;50.950;4.100;2023-07-16T08:34:36;11.53;;;5.00;;
52268;SDS011;38224;50.950;4.100;2023-07-16T08:37:01;9.00;;;4.93;;
52268;SDS011;38224;50.950;4.100;2023-07-16T08:39:27;10.07;;;4.82;;
52268;SDS011;38224;50.950;4.100;2023-07-16T08:41:52;9.18;;;4.53;;
52268;SDS011;38224;50.950;4.100;2023-07-16T08:44:18;9.80;;;5.15;;
52268;SDS011;38224;50.950;4.100;2023-07-16T08:46:43;10.05;;;4.80;;
52268;SDS011;38224;50.950;4.100;2023-07-16T08:49:09;7.97;;;4.00;;
52268;SDS011;38224;50.950;4.100;2023-07-16T08:51:36;8.38;;;4.00;;
52268;SDS011;38224;50.950;4.100;2023-07-16T08:54:01;10.00;;;4.53;;
52268;SDS011;38224;50.950;4.100;2023-07-16T08:56:26;9.80;;;4.35;;
52268;SDS011;38224;50.950;4.100;2023-07-16T08:58:53;9.55;;;4.43;;
52268;SDS011;38224;50.950;4.100;2023-07-16T09:01:20;6.90;;;3.72;;
52268;SDS011;38224;50.950;4.100;2023-07-16T09:03:46;12.57;;;4.53;;
52268;SDS011;38224;50.950;4.100;2023-07-16T09:06:11;10.20;;;4.40;;
52268;SDS011;38224;50.950;4.100;2023-07-16T09:08:37;12.10;;;5.22;;
52268;SDS011;38224;50.950;4.100;2023-07-16T09:11:02;17.38;;;5.97;;
52268;SDS011;38224;50.950;4.100;2023-07-16T09:13:28;10.25;;;5.60;;
52268;SDS011;38224;50.950;4.100;2023-07-16T09:15:54;9.10;;;4.82;;
52268;SDS011;38224;50.950;4.100;2023-07-16T09:18:24;9.63;;;4.40;;
52268;SDS011;38224;50.950;4.100;2023-07-16T09:20:56;12.65;;;4.20;;
52268;SDS011;38224;50.950;4.100;2023-07-16T09:23:23;13.15;;;4.53;;
52268;SDS011;38224;50.950;4.100;2023-07-16T09:25:49;9.48;;;4.88;;
52268;SDS011;38224;50.950;4.100;2023-07-16T09:28:15;14.85;;;5.20;;
52268;SDS011;38224;50.950;4.100;2023-07-16T09:30:43;9.15;;;5.32;;
52268;SDS011;38224;50.950;4.100;2023-07-16T09:33:16;10.52;;;5.05;;
52268;SDS011;38224;50.950;4.100;2023-07-16T09:35:41;12.00;;;4.90;;
52268;SDS011;38224;50.950;4.100;2023-07-16T09:38:10;9.07;;;4.53;;
52268;SDS011;38224;50.950;4.100;2023-07-16T09:40:36;11.85;;;5.18;;
52268;SDS011;38224;50.950;4.100;2023-07-16T09:43:01;12.65;;;4.90;;
52268;SDS011;38224;50.950;4.100;2023-07-16T09:45:27;11.35;;;4.97;;
52268;SDS011;38224;50.950;4.100;2023-07-16T09:47:52;11.13;;;5.18;;
52268;SDS011;38224;50.950;4.100;2023-07-16T09:50:18;10.45;;;4.00;;
52268;SDS011;38224;50.950;4.100;2023-07-16T09:52:43;13.13;;;4.57;;
52268;SDS011;38224;50.950;4.100;2023-07-16T09:55:09;16.20;;;4.93;;
52268;SDS011;38224;50.950;4.100;2023-07-16T09:57:35;14.13;;;5.03;;
52268;SDS011;38224;50.950;4.100;2023-07-16T10:00:03;15.05;;;4.93;;
52268;SDS011;38224;50.950;4.100;2023-07-16T10:02:33;11.07;;;4.43;;
52268;SDS011;38224;50.950;4.100;2023-07-16T10:04:59;10.68;;;4.78;;
52268;SDS011;38224;50.950;4.100;2023-07-16T10:07:24;10.77;;;5.10;;
52268;SDS011;38224;50.950;4.100;2023-07-16T10:09:54;14.82;;;4.93;;
52268;SDS011;38224;50.950;4.100;2023-07-16T10:12:22;12.02;;;4.75;;
52268;SDS011;38224;50.950;4.100;2023-07-16T10:14:51;13.68;;;4.40;;
52268;SDS011;38224;50.950;4.100;2023-07-16T10:17:19;12.13;;;4.78;;
52268;SDS011;38224;50.950;4.100;2023-07-16T10:22:17;7.93;;;4.43;;
52268;SDS011;38224;50.950;4.100;2023-07-16T10:24:42;13.80;;;4.65;;
52268;SDS011;38224;50.950;4.100;2023-07-16T10:27:07;9.95;;;5.00;;
52268;SDS011;38224;50.950;4.100;2023-07-16T10:29:32;12.20;;;5.15;;
52268;SDS011;38224;50.950;4.100;2023-07-16T10:31:58;15.77;;;5.05;;
52268;SDS011;38224;50.950;4.100;2023-07-16T10:34:23;9.43;;;5.22;;
52268;SDS011;38224;50.950;4.100;2023-07-16T10:36:49;14.98;;;5.85;;
52268;SDS011;38224;50.950;4.100;2023-07-16T10:39:15;10.25;;;4.22;;
52268;SDS011;38224;50.950;4.100;2023-07-16T10:41:40;10.13;;;4.05;;
52268;SDS011;38224;50.950;4.100;2023-07-16T10:44:07;10.77;;;4.33;;
52268;SDS011;38224;50.950;4.100;2023-07-16T10:46:33;9.05;;;3.33;;
52268;SDS011;38224;50.950;4.100;2023-07-16T10:48:58;7.30;;;3.58;;
52268;SDS011;38224;50.950;4.100;2023-07-16T10:51:26;9.50;;;4.90;;
52268;SDS011;38224;50.950;4.100;2023-07-16T10:53:54;9.10;;;4.00;;
52268;SDS011;38224;50.950;4.100;2023-07-16T10:56:19;7.65;;;3.38;;
52268;SDS011;38224;50.950;4.100;2023-07-16T10:58:45;4.63;;;3.07;;
52268;SDS011;38224;50.950;4.100;2023-07-16T11:01:10;6.03;;;3.33;;
52268;SDS011;38224;50.950;4.100;2023-07-16T11:03:35;9.48;;;3.50;;
52268;SDS011;38224;50.950;4.100;2023-07-16T11:06:10;4.90;;;3.33;;
52268;SDS011;38224;50.950;4.100;2023-07-16T11:08:40;5.03;;;3.13;;
52268;SDS011;38224;50.950;4.100;2023-07-16T11:11:06;6.80;;;3.33;;
52268;SDS011;38224;50.950;4.100;2023-07-16T11:13:31;8.13;;;3.17;;
52268;SDS011;38224;50.950;4.100;2023-07-16T11:15:57;6.90;;;2.92;;
52268;SDS011;38224;50.950;4.100;2023-07-16T11:18:25;8.57;;;3.15;;
52268;SDS011;38224;50.950;4.100;2023-07-16T11:20:51;8.95;;;3.53;;
52268;SDS011;38224;50.950;4.100;2023-07-16T11:23:17;6.05;;;3.17;;
52268;SDS011;38224;50.950;4.100;2023-07-16T11:25:46;7.97;;;3.70;;
52268;SDS011;38224;50.950;4.100;2023-07-16T11:28:11;6.88;;;3.47;;
52268;SDS011;38224;50.950;4.100;2023-07-16T11:30:37;7.30;;;3.37;;
52268;SDS011;38224;50.950;4.100;2023-07-16T11:33:02;9.87;;;3.60;;
52268;SDS011;38224;50.950;4.100;2023-07-16T11:35:27;9.67;;;3.57;;
52268;SDS011;38224;50.950;4.100;2023-07-16T11:37:54;8.03;;;3.20;;
52268;SDS011;38224;50.950;4.100;2023-07-16T11:40:19;5.97;;;3.30;;
52268;SDS011;38224;50.950;4.100;2023-07-16T11:42:45;5.25;;;3.10;;
52268;SDS011;38224;50.950;4.100;2023-07-16T11:47:42;8.35;;;2.90;;
52268;SDS011;38224;50.950;4.100;2023-07-16T11:50:07;8.88;;;3.92;;
52268;SDS011;38224;50.950;4.100;2023-07-16T11:52:33;6.93;;;3.05;;
52268;SDS011;38224;50.950;4.100;2023-07-16T11:54:58;7.70;;;3.27;;
52268;SDS011;38224;50.950;4.100;2023-07-16T11:57:29;8.05;;;3.72;;
52268;SDS011;38224;50.950;4.100;2023-07-16T11:59:54;7.03;;;2.63;;
52268;SDS011;38224;50.950;4.100;2023-07-16T12:02:21;6.30;;;3.08;;
52268;SDS011;38224;50.950;4.100;2023-07-16T12:04:47;7.75;;;3.00;;
52268;SDS011;38224;50.950;4.100;2023-07-16T12:07:12;6.53;;;3.28;;
52268;SDS011;38224;50.950;4.100;2023-07-16T12:09:37;5.27;;;2.70;;
52268;SDS011;38224;50.950;4.100;2023-07-16T12:12:03;8.02;;;3.33;;
52268;SDS011;38224;50.950;4.100;2023-07-16T12:14:28;7.32;;;3.15;;
52268;SDS011;38224;50.950;4.100;2023-07-16T12:16:53;9.57;;;3.38;;
52268;SDS011;38224;50.950;4.100;2023-07-16T12:19:19;7.63;;;3.00;;
52268;SDS011;38224;50.950;4.100;2023-07-16T12:21:44;6.65;;;3.20;;
52268;SDS011;38224;50.950;4.100;2023-07-16T12:24:09;5.45;;;2.90;;
52268;SDS011;38224;50.950;4.100;2023-07-16T12:26:35;5.53;;;2.72;;
52268;SDS011;38224;50.950;4.100;2023-07-16T12:29:00;7.53;;;2.92;;
52268;SDS011;38224;50.950;4.100;2023-07-16T12:31:29;5.93;;;2.80;;
52268;SDS011;38224;50.950;4.100;2023-07-16T12:33:54;6.18;;;2.47;;
52268;SDS011;38224;50.950;4.100;2023-07-16T12:36:20;4.90;;;2.40;;
52268;SDS011;38224;50.950;4.100;2023-07-16T12:38:45;6.18;;;2.10;;
52268;SDS011;38224;50.950;4.100;2023-07-16T12:41:10;5.07;;;2.57;;
52268;SDS011;38224;50.950;4.100;2023-07-16T12:43:36;6.55;;;2.58;;
52268;SDS011;38224;50.950;4.100;2023-07-16T12:46:01;6.30;;;2.55;;
52268;SDS011;38224;50.950;4.100;2023-07-16T12:48:28;5.78;;;3.05;;
52268;SDS011;38224;50.950;4.100;2023-07-16T12:50:53;10.52;;;3.15;;
52268;SDS011;38224;50.950;4.100;2023-07-16T12:53:18;4.93;;;2.40;;
52268;SDS011;38224;50.950;4.100;2023-07-16T12:55:43;5.30;;;2.47;;
52268;SDS011;38224;50.950;4.100;2023-07-16T12:58:09;5.83;;;2.73;;
52268;SDS011;38224;50.950;4.100;2023-07-16T13:00:34;5.78;;;2.58;;
52268;SDS011;38224;50.950;4.100;2023-07-16T13:02:59;7.90;;;2.42;;
52268;SDS011;38224;50.950;4.100;2023-07-16T13:05:25;6.17;;;2.30;;
52268;SDS011;38224;50.950;4.100;2023-07-16T13:07:50;6.03;;;2.47;;
52268;SDS011;38224;50.950;4.100;2023-07-16T13:10:15;9.70;;;2.30;;
52268;SDS011;38224;50.950;4.100;2023-07-16T13:12:40;2.67;;;1.83;;
52268;SDS011;38224;50.950;4.100;2023-07-16T13:15:06;5.20;;;1.37;;
52268;SDS011;38224;50.950;4.100;2023-07-16T13:17:31;4.18;;;1.30;;
52268;SDS011;38224;50.950;4.100;2023-07-16T13:19:57;3.57;;;1.40;;
52268;SDS011;38224;50.950;4.100;2023-07-16T13:22:22;3.67;;;1.30;;
52268;SDS011;38224;50.950;4.100;2023-07-16T13:24:47;2.40;;;1.37;;
52268;SDS011;38224;50.950;4.100;2023-07-16T13:27:19;2.33;;;1.70;;
52268;SDS011;38224;50.950;4.100;2023-07-16T13:29:45;3.08;;;1.52;;
52268;SDS011;38224;50.950;4.100;2023-07-16T13:32:10;3.93;;;1.60;;
52268;SDS011;38224;50.950;4.100;2023-07-16T13:34:35;4.47;;;1.50;;
52268;SDS011;38224;50.950;4.100;2023-07-16T13:37:00;3.53;;;1.20;;
52268;SDS011;38224;50.950;4.100;2023-07-16T13:39:25;3.13;;;1.17;;
52268;SDS011;38224;50.950;4.100;2023-07-16T13:41:51;2.37;;;0.80;;
52268;SDS011;38224;50.950;4.100;2023-07-16T13:44:16;0.60;;;0.60;;
52268;SDS011;38224;50.950;4.100;2023-07-16T13:46:41;3.23;;;0.77;;
52268;SDS011;38224;50.950;4.100;2023-07-16T13:49:08;1.58;;;0.70;;
52268;SDS011;38224;50.950;4.100;2023-07-16T13:51:33;2.00;;;0.70;;
52268;SDS011;38224;50.950;4.100;2023-07-16T13:53:58;1.50;;;0.80;;
52268;SDS011;38224;50.950;4.100;2023-07-16T13:56:23;5.73;;;1.13;;
52268;SDS011;38224;50.950;4.100;2023-07-16T13:58:49;1.47;;;1.07;;
52268;SDS011;38224;50.950;4.100;2023-07-16T14:01:15;0.88;;;0.60;;
52268;SDS011;38224;50.950;4.100;2023-07-16T14:03:41;2.13;;;0.85;;
52268;SDS011;38224;50.950;4.100;2023-07-16T14:06:06;0.60;;;0.60;;
52268;SDS011;38224;50.950;4.100;2023-07-16T14:08:32;4.27;;;1.00;;
52268;SDS011;38224;50.950;4.100;2023-07-16T14:10:59;2.08;;;0.90;;
52268;SDS011;38224;50.950;4.100;2023-07-16T14:13:24;2.85;;;0.73;;
52268;SDS011;38224;50.950;4.100;2023-07-16T14:15:49;2.97;;;0.60;;
52268;SDS011;38224;50.950;4.100;2023-07-16T14:18:15;1.35;;;0.80;;
52268;SDS011;38224;50.950;4.100;2023-07-16T14:20:40;1.43;;;0.70;;
52268;SDS011;38224;50.950;4.100;2023-07-16T14:23:05;2.38;;;1.33;;
52268;SDS011;38224;50.950;4.100;2023-07-16T14:25:31;1.35;;;0.93;;
52268;SDS011;38224;50.950;4.100;2023-07-16T14:27:56;4.00;;;1.08;;
52268;SDS011;38224;50.950;4.100;2023-07-16T14:30:21;2.40;;;1.00;;
52268;SDS011;38224;50.950;4.100;2023-07-16T14:32:47;1.92;;;0.98;;
52268;SDS011;38224;50.950;4.100;2023-07-16T14:35:12;2.80;;;1.40;;
52268;SDS011;38224;50.950;4.100;2023-07-16T14:37:37;1.92;;;1.10;;
52268;SDS011;38224;50.950;4.100;2023-07-16T14:40:03;4.35;;;1.40;;
52268;SDS011;38224;50.950;4.100;2023-07-16T14:42:32;2.25;;;1.08;;